< Typhoon 196721 1967 Season Typhoon 196723 >
Typhoon 196722 (OPAL)
General InformationTrack Information on Google Maps || Disaster Info.ResourceGoogle EarthGE AnimationAtom FeedGeoJSON
Detalied Best Track (Time Zone = UTC)
Year Month Day Hour Lat. Long. Pressure (hPa) Wind (kt) Class Image Chart
1967 8 29 00 15.0 170.0 1006 0 2 -- Chart
1967 8 29 06 15.3 169.6 1004 0 2 -- Chart
1967 8 29 12 15.5 169.3 1002 0 2 -- Chart
1967 8 29 18 15.9 169.1 1000 0 2 -- Chart
1967 8 30 00 16.1 168.8 998 0 9 -- Chart
1967 8 30 06 16.6 168.6 994 0 9 -- Chart
1967 8 30 12 16.9 168.4 990 0 9 -- Chart
1967 8 30 18 17.0 168.3 984 0 9 -- Chart
1967 8 31 00 17.4 168.1 982 0 9 -- Chart
1967 8 31 06 17.4 167.8 975 0 9 -- Chart
1967 8 31 12 17.5 167.3 968 0 9 -- Chart
1967 8 31 18 18.0 166.9 970 0 9 -- Chart
1967 9 1 00 18.2 166.3 976 0 9 -- Chart
1967 9 1 06 18.3 165.8 976 0 9 -- Chart
1967 9 1 12 18.5 165.1 974 0 9 -- Chart
1967 9 1 18 18.8 164.1 972 0 9 -- Chart
1967 9 2 00 18.6 163.2 972 0 9 -- Chart
1967 9 2 06 19.0 162.2 955 0 9 -- Chart
1967 9 2 12 19.0 161.8 935 0 9 -- Chart
1967 9 2 18 19.2 161.1 940 0 9 -- Chart
1967 9 3 00 19.6 160.2 940 0 9 -- Chart
1967 9 3 06 20.1 159.3 935 0 9 -- Chart
1967 9 3 12 20.5 158.3 930 0 9 -- Chart
1967 9 3 18 20.6 157.0 925 0 9 -- Chart
1967 9 4 00 20.8 156.2 920 0 9 -- Chart
1967 9 4 06 21.1 155.1 930 0 9 -- Chart
1967 9 4 12 21.6 154.1 940 0 9 -- Chart
1967 9 4 18 22.1 153.0 950 0 9 -- Chart
1967 9 5 00 22.5 152.1 960 0 9 -- Chart
1967 9 5 06 22.9 151.1 960 0 9 -- Chart
1967 9 5 12 23.3 150.4 955 0 9 -- Chart
1967 9 5 18 24.0 149.7 945 0 9 -- Chart
1967 9 6 00 24.7 149.1 940 0 9 -- Chart
1967 9 6 06 25.1 148.7 940 0 9 -- Chart
1967 9 6 12 25.7 148.1 950 0 9 -- Chart
1967 9 6 18 25.9 147.9 950 0 9 -- Chart
1967 9 7 00 26.2 147.0 950 0 9 -- Chart
1967 9 7 06 26.8 146.5 954 0 9 -- Chart
1967 9 7 12 27.2 146.4 954 0 9 -- Chart
1967 9 7 18 27.3 146.0 954 0 9 -- Chart
1967 9 8 00 27.3 145.1 958 0 9 -- Chart
1967 9 8 06 27.3 144.7 962 0 9 -- Chart
1967 9 8 12 27.1 144.0 962 0 9 -- Chart
1967 9 8 18 27.1 143.5 962 0 9 -- Chart
1967 9 9 00 27.0 142.9 965 0 9 -- Chart
1967 9 9 06 26.9 142.1 965 0 9 -- Chart
1967 9 9 12 26.9 141.8 965 0 9 -- Chart
1967 9 9 18 26.8 141.1 965 0 9 -- Chart
1967 9 10 00 26.5 140.4 965 0 9 -- Chart
1967 9 10 06 26.5 139.5 965 0 9 -- Chart
1967 9 10 12 26.5 138.9 965 0 9 -- Chart
1967 9 10 18 26.8 138.1 965 0 9 -- Chart
1967 9 11 00 27.0 137.5 965 0 9 -- Chart
1967 9 11 06 27.3 136.9 965 0 9 -- Chart
1967 9 11 12 27.5 136.7 965 0 9 -- Chart
1967 9 11 18 28.0 136.4 962 0 9 -- Chart
1967 9 12 00 28.5 136.2 960 0 9 -- Chart
1967 9 12 06 28.6 136.2 962 0 9 -- Chart
1967 9 12 12 29.0 136.3 962 0 9 -- Chart
1967 9 12 18 29.6 137.1 962 0 9 -- Chart
1967 9 13 00 29.8 138.0 962 0 9 -- Chart
1967 9 13 06 30.3 139.0 962 0 9 -- Chart
1967 9 13 12 31.3 139.7 965 0 9 -- Chart
1967 9 13 18 31.9 140.5 965 0 9 -- Chart
1967 9 14 00 32.5 141.6 965 0 9 -- Chart
1967 9 14 06 33.2 142.0 968 0 9 -- Chart
1967 9 14 12 33.8 142.2 970 0 9 -- Chart
1967 9 14 18 34.3 142.7 972 0 9 -- Chart
1967 9 15 00 33.5 142.7 974 0 9 -- Chart
1967 9 15 06 33.6 141.9 975 0 9 -- Chart
1967 9 15 12 33.9 142.1 970 0 9 -- Chart
1967 9 15 18 34.6 143.1 975 0 9 -- Chart
1967 9 16 00 35.4 143.5 976 0 9 -- Chart
1967 9 16 06 36.4 144.9 975 0 9 -- Chart
1967 9 16 12 37.3 146.2 975 0 9 -- Chart
1967 9 16 18 38.7 148.0 980 0 9 -- Chart
1967 9 17 00 39.3 149.0 990 0 9 -- Chart
1967 9 17 06 39.9 150.0 998 0 6 -- Chart
1967 9 17 12 40.0 151.1 1000 0 6 -- Chart
1967 9 17 18 40.1 152.5 1004 0 6 -- Chart
1967 9 18 00 40.4 153.6 1006 0 6 -- Chart
1967 9 18 06 40.9 155.0 1006 0 6 -- Chart
1967 9 18 12 41.1 156.0 1006 0 6 -- Chart
1967 9 18 18 41.5 157.0 1006 0 6 -- Chart
1967 9 19 00 42.0 158.0 1006 0 6 -- Chart
Japan Meteorological Agency Best Track Data | Correction Date : 1989-06-01
< Typhoon 196721 1967 Season Typhoon 196723 >

Help